sensor_id;sensor_type;location;lat;lon;timestamp;temperature;humidity
4584;DHT22;2304;47.606;12.186;2022-10-16T00:00:11;15.70;87.70
4584;DHT22;2304;47.606;12.186;2022-10-16T00:05:13;15.70;87.00
4584;DHT22;2304;47.606;12.186;2022-10-16T00:10:16;15.70;87.80
4584;DHT22;2304;47.606;12.186;2022-10-16T00:15:18;15.60;87.90
4584;DHT22;2304;47.606;12.186;2022-10-16T00:20:20;15.50;89.30
4584;DHT22;2304;47.606;12.186;2022-10-16T00:25:23;15.50;89.10
4584;DHT22;2304;47.606;12.186;2022-10-16T00:30:25;15.50;88.00
4584;DHT22;2304;47.606;12.186;2022-10-16T00:35:28;15.50;87.90
4584;DHT22;2304;47.606;12.186;2022-10-16T00:40:31;15.50;87.50
4584;DHT22;2304;47.606;12.186;2022-10-16T00:45:33;15.60;86.80
4584;DHT22;2304;47.606;12.186;2022-10-16T00:50:35;15.50;87.90
4584;DHT22;2304;47.606;12.186;2022-10-16T00:55:38;15.50;87.90
4584;DHT22;2304;47.606;12.186;2022-10-16T01:00:40;15.40;88.30
4584;DHT22;2304;47.606;12.186;2022-10-16T01:05:48;15.30;88.90
4584;DHT22;2304;47.606;12.186;2022-10-16T01:10:57;15.30;89.40
4584;DHT22;2304;47.606;12.186;2022-10-16T01:16:06;15.20;89.80
4584;DHT22;2304;47.606;12.186;2022-10-16T01:21:12;15.20;90.00
4584;DHT22;2304;47.606;12.186;2022-10-16T01:26:24;15.30;89.70
4584;DHT22;2304;47.606;12.186;2022-10-16T01:31:33;15.00;90.00
4584;DHT22;2304;47.606;12.186;2022-10-16T01:36:40;14.90;90.70
4584;DHT22;2304;47.606;12.186;2022-10-16T01:41:46;14.90;90.30
4584;DHT22;2304;47.606;12.186;2022-10-16T01:46:52;14.80;90.20
4584;DHT22;2304;47.606;12.186;2022-10-16T01:51:57;14.80;90.10
4584;DHT22;2304;47.606;12.186;2022-10-16T01:57:01;14.80;90.90
4584;DHT22;2304;47.606;12.186;2022-10-16T02:02:09;14.70;91.40
4584;DHT22;2304;47.606;12.186;2022-10-16T02:07:12;14.70;91.30
4584;DHT22;2304;47.606;12.186;2022-10-16T02:12:19;14.70;91.50
4584;DHT22;2304;47.606;12.186;2022-10-16T02:17:25;14.70;91.30
4584;DHT22;2304;47.606;12.186;2022-10-16T02:22:28;14.60;91.40
4584;DHT22;2304;47.606;12.186;2022-10-16T02:27:34;14.60;91.50
4584;DHT22;2304;47.606;12.186;2022-10-16T02:32:41;14.60;91.10
4584;DHT22;2304;47.606;12.186;2022-10-16T02:37:44;14.50;91.10
4584;DHT22;2304;47.606;12.186;2022-10-16T02:42:50;14.50;91.10
4584;DHT22;2304;47.606;12.186;2022-10-16T02:47:53;14.50;90.70
4584;DHT22;2304;47.606;12.186;2022-10-16T02:52:55;14.70;90.50
4584;DHT22;2304;47.606;12.186;2022-10-16T02:57:57;14.50;90.40
4584;DHT22;2304;47.606;12.186;2022-10-16T03:03:00;14.50;90.40
4584;DHT22;2304;47.606;12.186;2022-10-16T03:08:02;14.50;90.40
4584;DHT22;2304;47.606;12.186;2022-10-16T03:13:03;14.40;90.60
4584;DHT22;2304;47.606;12.186;2022-10-16T03:18:07;14.40;90.70
4584;DHT22;2304;47.606;12.186;2022-10-16T03:23:08;14.40;90.40
4584;DHT22;2304;47.606;12.186;2022-10-16T03:28:10;14.40;90.70
4584;DHT22;2304;47.606;12.186;2022-10-16T03:33:13;14.30;90.80
4584;DHT22;2304;47.606;12.186;2022-10-16T03:38:15;14.30;90.60
4584;DHT22;2304;47.606;12.186;2022-10-16T03:43:17;14.20;90.20
4584;DHT22;2304;47.606;12.186;2022-10-16T03:48:20;14.20;90.20
4584;DHT22;2304;47.606;12.186;2022-10-16T03:53:22;14.10;90.60
4584;DHT22;2304;47.606;12.186;2022-10-16T03:58:24;14.10;90.50
4584;DHT22;2304;47.606;12.186;2022-10-16T04:03:27;14.10;90.30
4584;DHT22;2304;47.606;12.186;2022-10-16T04:08:29;14.10;90.10
4584;DHT22;2304;47.606;12.186;2022-10-16T04:13:31;14.00;90.60
4584;DHT22;2304;47.606;12.186;2022-10-16T04:18:34;14.00;90.50
4584;DHT22;2304;47.606;12.186;2022-10-16T04:23:36;14.00;90.20
4584;DHT22;2304;47.606;12.186;2022-10-16T04:28:38;14.00;89.60
4584;DHT22;2304;47.606;12.186;2022-10-16T04:33:43;14.00;88.90
4584;DHT22;2304;47.606;12.186;2022-10-16T04:38:45;13.80;89.60
4584;DHT22;2304;47.606;12.186;2022-10-16T04:43:47;13.80;90.00
4584;DHT22;2304;47.606;12.186;2022-10-16T04:48:50;13.80;90.10
4584;DHT22;2304;47.606;12.186;2022-10-16T04:53:52;13.80;89.80
4584;DHT22;2304;47.606;12.186;2022-10-16T04:58:54;13.70;89.30
4584;DHT22;2304;47.606;12.186;2022-10-16T05:03:57;13.70;89.00
4584;DHT22;2304;47.606;12.186;2022-10-16T05:08:59;13.60;90.00
4584;DHT22;2304;47.606;12.186;2022-10-16T05:14:00;13.50;90.10
4584;DHT22;2304;47.606;12.186;2022-10-16T05:19:03;13.50;89.90
4584;DHT22;2304;47.606;12.186;2022-10-16T05:24:05;13.50;89.50
4584;DHT22;2304;47.606;12.186;2022-10-16T05:29:07;13.30;90.00
4584;DHT22;2304;47.606;12.186;2022-10-16T05:34:10;13.30;90.60
4584;DHT22;2304;47.606;12.186;2022-10-16T05:39:13;13.30;90.50
4584;DHT22;2304;47.606;12.186;2022-10-16T05:44:15;13.30;89.90
4584;DHT22;2304;47.606;12.186;2022-10-16T05:49:18;13.20;90.00
4584;DHT22;2304;47.606;12.186;2022-10-16T05:54:20;13.20;90.60
4584;DHT22;2304;47.606;12.186;2022-10-16T05:59:22;13.20;90.60
4584;DHT22;2304;47.606;12.186;2022-10-16T06:04:25;13.30;90.60
4584;DHT22;2304;47.606;12.186;2022-10-16T06:09:27;13.20;90.90
4584;DHT22;2304;47.606;12.186;2022-10-16T06:14:29;13.20;91.60
4584;DHT22;2304;47.606;12.186;2022-10-16T06:19:32;13.20;91.50
4584;DHT22;2304;47.606;12.186;2022-10-16T06:24:34;13.20;92.00
4584;DHT22;2304;47.606;12.186;2022-10-16T06:29:35;13.20;91.50
4584;DHT22;2304;47.606;12.186;2022-10-16T06:34:38;13.20;91.30
4584;DHT22;2304;47.606;12.186;2022-10-16T06:39:41;13.20;91.20
4584;DHT22;2304;47.606;12.186;2022-10-16T06:44:43;13.20;91.00
4584;DHT22;2304;47.606;12.186;2022-10-16T06:49:46;13.40;91.20
4584;DHT22;2304;47.606;12.186;2022-10-16T06:54:49;13.30;91.10
4584;DHT22;2304;47.606;12.186;2022-10-16T06:59:50;13.30;91.80
4584;DHT22;2304;47.606;12.186;2022-10-16T07:04:53;13.30;91.80
4584;DHT22;2304;47.606;12.186;2022-10-16T07:09:57;13.40;91.90
4584;DHT22;2304;47.606;12.186;2022-10-16T07:14:59;13.40;92.00
4584;DHT22;2304;47.606;12.186;2022-10-16T07:20:02;13.40;91.20
4584;DHT22;2304;47.606;12.186;2022-10-16T07:25:05;13.50;91.10
4584;DHT22;2304;47.606;12.186;2022-10-16T07:30:07;13.60;91.20
4584;DHT22;2304;47.606;12.186;2022-10-16T07:35:11;14.00;90.40
4584;DHT22;2304;47.606;12.186;2022-10-16T07:40:13;14.30;88.30
4584;DHT22;2304;47.606;12.186;2022-10-16T07:45:14;14.60;86.50
4584;DHT22;2304;47.606;12.186;2022-10-16T07:50:17;14.90;84.50
4584;DHT22;2304;47.606;12.186;2022-10-16T07:55:19;15.00;83.60
4584;DHT22;2304;47.606;12.186;2022-10-16T08:00:21;15.20;82.30
4584;DHT22;2304;47.606;12.186;2022-10-16T08:05:24;15.60;82.70
4584;DHT22;2304;47.606;12.186;2022-10-16T08:10:27;15.70;79.50
4584;DHT22;2304;47.606;12.186;2022-10-16T08:15:29;16.00;77.90
4584;DHT22;2304;47.606;12.186;2022-10-16T08:20:33;16.20;78.60
4584;DHT22;2304;47.606;12.186;2022-10-16T08:25:35;16.40;76.00
4584;DHT22;2304;47.606;12.186;2022-10-16T08:30:37;16.60;73.70
4584;DHT22;2304;47.606;12.186;2022-10-16T08:35:40;16.90;74.00
4584;DHT22;2304;47.606;12.186;2022-10-16T08:40:42;17.30;73.50
4584;DHT22;2304;47.606;12.186;2022-10-16T08:45:57;17.40;71.40
4584;DHT22;2304;47.606;12.186;2022-10-16T08:51:10;17.70;71.30
4584;DHT22;2304;47.606;12.186;2022-10-16T08:56:13;18.20;70.10
4584;DHT22;2304;47.606;12.186;2022-10-16T09:01:16;18.30;68.60
4584;DHT22;2304;47.606;12.186;2022-10-16T09:06:32;18.50;68.60
4584;DHT22;2304;47.606;12.186;2022-10-16T09:11:44;18.90;67.80
4584;DHT22;2304;47.606;12.186;2022-10-16T09:16:51;19.10;65.00
4584;DHT22;2304;47.606;12.186;2022-10-16T09:21:59;19.20;67.00
4584;DHT22;2304;47.606;12.186;2022-10-16T09:27:03;19.60;63.10
4584;DHT22;2304;47.606;12.186;2022-10-16T09:32:12;19.60;62.30
4584;DHT22;2304;47.606;12.186;2022-10-16T09:37:18;19.70;62.60
4584;DHT22;2304;47.606;12.186;2022-10-16T09:42:23;20.20;61.50
4584;DHT22;2304;47.606;12.186;2022-10-16T09:47:29;20.10;60.80
4584;DHT22;2304;47.606;12.186;2022-10-16T09:52:33;20.30;60.40
4584;DHT22;2304;47.606;12.186;2022-10-16T09:57:35;20.50;59.40
4584;DHT22;2304;47.606;12.186;2022-10-16T10:02:37;20.60;58.80
4584;DHT22;2304;47.606;12.186;2022-10-16T10:07:43;20.60;58.60
4584;DHT22;2304;47.606;12.186;2022-10-16T10:12:46;20.90;58.20
4584;DHT22;2304;47.606;12.186;2022-10-16T10:17:49;21.00;56.30
4584;DHT22;2304;47.606;12.186;2022-10-16T10:22:53;21.30;58.80
4584;DHT22;2304;47.606;12.186;2022-10-16T10:28:22;21.90;59.50
4584;DHT22;2304;47.606;12.186;2022-10-16T10:33:34;22.10;58.30
4584;DHT22;2304;47.606;12.186;2022-10-16T10:38:47;22.30;56.50
4584;DHT22;2304;47.606;12.186;2022-10-16T10:44:01;22.70;57.30
4584;DHT22;2304;47.606;12.186;2022-10-16T10:49:19;23.00;57.80
4584;DHT22;2304;47.606;12.186;2022-10-16T10:54:34;23.20;55.10
4584;DHT22;2304;47.606;12.186;2022-10-16T11:00:03;23.50;52.50
4584;DHT22;2304;47.606;12.186;2022-10-16T11:05:27;23.30;52.00
4584;DHT22;2304;47.606;12.186;2022-10-16T11:10:38;23.40;52.40
4584;DHT22;2304;47.606;12.186;2022-10-16T11:15:43;23.60;52.00
4584;DHT22;2304;47.606;12.186;2022-10-16T11:20:52;23.50;51.80
4584;DHT22;2304;47.606;12.186;2022-10-16T11:26:00;24.00;55.00
4584;DHT22;2304;47.606;12.186;2022-10-16T11:31:05;24.40;53.50
4584;DHT22;2304;47.606;12.186;2022-10-16T11:36:14;24.50;52.70
4584;DHT22;2304;47.606;12.186;2022-10-16T11:41:24;24.70;54.00
4584;DHT22;2304;47.606;12.186;2022-10-16T11:46:29;24.90;54.20
4584;DHT22;2304;47.606;12.186;2022-10-16T11:51:36;25.10;52.40
4584;DHT22;2304;47.606;12.186;2022-10-16T11:56:42;25.30;51.00
4584;DHT22;2304;47.606;12.186;2022-10-16T12:01:49;25.40;51.50
4584;DHT22;2304;47.606;12.186;2022-10-16T12:06:58;25.40;50.40
4584;DHT22;2304;47.606;12.186;2022-10-16T12:12:02;25.60;51.80
4584;DHT22;2304;47.606;12.186;2022-10-16T12:17:23;25.70;50.70
4584;DHT22;2304;47.606;12.186;2022-10-16T12:22:27;25.70;51.00
4584;DHT22;2304;47.606;12.186;2022-10-16T12:27:32;25.80;51.00
4584;DHT22;2304;47.606;12.186;2022-10-16T12:32:36;25.90;49.40
4584;DHT22;2304;47.606;12.186;2022-10-16T12:37:39;25.90;46.70
4584;DHT22;2304;47.606;12.186;2022-10-16T12:42:42;25.90;47.90
4584;DHT22;2304;47.606;12.186;2022-10-16T12:47:49;26.10;50.60
4584;DHT22;2304;47.606;12.186;2022-10-16T12:52:51;26.20;48.90
4584;DHT22;2304;47.606;12.186;2022-10-16T12:58:09;26.10;47.50
4584;DHT22;2304;47.606;12.186;2022-10-16T13:03:34;26.10;49.20
4584;DHT22;2304;47.606;12.186;2022-10-16T13:08:52;26.30;49.50
4584;DHT22;2304;47.606;12.186;2022-10-16T13:14:14;26.30;49.00
4584;DHT22;2304;47.606;12.186;2022-10-16T13:19:27;26.40;49.50
4584;DHT22;2304;47.606;12.186;2022-10-16T13:24:46;26.40;47.70
4584;DHT22;2304;47.606;12.186;2022-10-16T13:29:59;26.40;48.70
4584;DHT22;2304;47.606;12.186;2022-10-16T13:35:01;26.40;47.80
4584;DHT22;2304;47.606;12.186;2022-10-16T13:40:18;26.40;49.60
4584;DHT22;2304;47.606;12.186;2022-10-16T13:45:23;26.40;49.90
4584;DHT22;2304;47.606;12.186;2022-10-16T13:50:25;26.30;48.90
4584;DHT22;2304;47.606;12.186;2022-10-16T13:55:27;26.30;49.40
4584;DHT22;2304;47.606;12.186;2022-10-16T14:00:30;26.30;49.20
4584;DHT22;2304;47.606;12.186;2022-10-16T14:05:33;26.00;47.00
4584;DHT22;2304;47.606;12.186;2022-10-16T14:10:35;26.00;47.90
4584;DHT22;2304;47.606;12.186;2022-10-16T14:15:39;26.00;47.60
4584;DHT22;2304;47.606;12.186;2022-10-16T14:20:41;25.90;47.50
4584;DHT22;2304;47.606;12.186;2022-10-16T14:25:42;25.90;48.80
4584;DHT22;2304;47.606;12.186;2022-10-16T14:30:53;25.70;47.70
4584;DHT22;2304;47.606;12.186;2022-10-16T14:36:02;25.70;49.10
4584;DHT22;2304;47.606;12.186;2022-10-16T14:41:06;25.60;49.50
4584;DHT22;2304;47.606;12.186;2022-10-16T14:46:13;25.60;51.10
4584;DHT22;2304;47.606;12.186;2022-10-16T14:51:16;25.40;51.50
4584;DHT22;2304;47.606;12.186;2022-10-16T14:56:21;25.20;52.60
4584;DHT22;2304;47.606;12.186;2022-10-16T15:01:24;25.00;52.90
4584;DHT22;2304;47.606;12.186;2022-10-16T15:06:26;24.90;53.80
4584;DHT22;2304;47.606;12.186;2022-10-16T15:11:27;24.70;53.80
4584;DHT22;2304;47.606;12.186;2022-10-16T15:16:31;24.50;54.00
4584;DHT22;2304;47.606;12.186;2022-10-16T15:21:33;24.30;55.00
4584;DHT22;2304;47.606;12.186;2022-10-16T15:26:35;24.00;55.40
4584;DHT22;2304;47.606;12.186;2022-10-16T15:31:38;23.80;55.90
4584;DHT22;2304;47.606;12.186;2022-10-16T15:36:42;23.50;55.90
4584;DHT22;2304;47.606;12.186;2022-10-16T15:41:45;23.30;56.80
4584;DHT22;2304;47.606;12.186;2022-10-16T15:46:54;23.10;57.00
4584;DHT22;2304;47.606;12.186;2022-10-16T15:51:57;22.90;57.50
4584;DHT22;2304;47.606;12.186;2022-10-16T15:56:58;22.80;57.50
4584;DHT22;2304;47.606;12.186;2022-10-16T16:02:01;22.70;58.30
4584;DHT22;2304;47.606;12.186;2022-10-16T16:07:03;22.50;58.60
4584;DHT22;2304;47.606;12.186;2022-10-16T16:12:07;22.40;58.80
4584;DHT22;2304;47.606;12.186;2022-10-16T16:17:10;22.30;59.10
4584;DHT22;2304;47.606;12.186;2022-10-16T16:22:12;22.00;59.50
4584;DHT22;2304;47.606;12.186;2022-10-16T16:27:14;21.80;60.10
4584;DHT22;2304;47.606;12.186;2022-10-16T16:32:17;21.70;60.60
4584;DHT22;2304;47.606;12.186;2022-10-16T16:37:19;21.60;60.90
4584;DHT22;2304;47.606;12.186;2022-10-16T16:42:21;21.50;60.90
4584;DHT22;2304;47.606;12.186;2022-10-16T16:47:25;21.30;61.40
4584;DHT22;2304;47.606;12.186;2022-10-16T16:52:29;21.20;61.90
4584;DHT22;2304;47.606;12.186;2022-10-16T16:57:30;21.00;62.50
4584;DHT22;2304;47.606;12.186;2022-10-16T17:02:34;20.90;63.00
4584;DHT22;2304;47.606;12.186;2022-10-16T17:07:35;20.80;62.50
4584;DHT22;2304;47.606;12.186;2022-10-16T17:12:40;20.70;63.30
4584;DHT22;2304;47.606;12.186;2022-10-16T17:17:44;20.60;63.50
4584;DHT22;2304;47.606;12.186;2022-10-16T17:22:45;20.50;63.70
4584;DHT22;2304;47.606;12.186;2022-10-16T17:27:48;20.30;64.00
4584;DHT22;2304;47.606;12.186;2022-10-16T17:32:51;20.10;62.60
4584;DHT22;2304;47.606;12.186;2022-10-16T17:37:53;20.10;63.60
4584;DHT22;2304;47.606;12.186;2022-10-16T17:42:55;20.10;64.30
4584;DHT22;2304;47.606;12.186;2022-10-16T17:47:58;20.00;64.20
4584;DHT22;2304;47.606;12.186;2022-10-16T17:53:00;20.10;64.90
4584;DHT22;2304;47.606;12.186;2022-10-16T17:58:02;20.00;64.70
4584;DHT22;2304;47.606;12.186;2022-10-16T18:03:05;20.00;64.70
4584;DHT22;2304;47.606;12.186;2022-10-16T18:08:07;19.90;64.70
4584;DHT22;2304;47.606;12.186;2022-10-16T18:13:09;19.90;65.10
4584;DHT22;2304;47.606;12.186;2022-10-16T18:18:12;19.80;64.70
4584;DHT22;2304;47.606;12.186;2022-10-16T18:23:14;19.70;65.00
4584;DHT22;2304;47.606;12.186;2022-10-16T18:28:16;19.50;64.90
4584;DHT22;2304;47.606;12.186;2022-10-16T18:33:19;19.30;66.30
4584;DHT22;2304;47.606;12.186;2022-10-16T18:38:21;19.20;66.80
4584;DHT22;2304;47.606;12.186;2022-10-16T18:43:23;19.20;66.60
4584;DHT22;2304;47.606;12.186;2022-10-16T18:48:27;19.20;67.00
4584;DHT22;2304;47.606;12.186;2022-10-16T18:53:30;19.30;67.10
4584;DHT22;2304;47.606;12.186;2022-10-16T18:58:32;19.10;67.00
4584;DHT22;2304;47.606;12.186;2022-10-16T19:03:36;19.10;67.10
4584;DHT22;2304;47.606;12.186;2022-10-16T19:08:38;19.00;67.10
4584;DHT22;2304;47.606;12.186;2022-10-16T19:13:40;18.80;66.70
4584;DHT22;2304;47.606;12.186;2022-10-16T19:18:43;18.70;67.10
4584;DHT22;2304;47.606;12.186;2022-10-16T19:23:48;18.70;67.20
4584;DHT22;2304;47.606;12.186;2022-10-16T19:28:51;18.60;67.40
4584;DHT22;2304;47.606;12.186;2022-10-16T19:33:57;18.50;67.80
4584;DHT22;2304;47.606;12.186;2022-10-16T19:39:00;18.40;68.00
4584;DHT22;2304;47.606;12.186;2022-10-16T19:44:05;18.30;68.30
4584;DHT22;2304;47.606;12.186;2022-10-16T19:49:10;18.20;69.00
4584;DHT22;2304;47.606;12.186;2022-10-16T19:54:12;18.10;69.70
4584;DHT22;2304;47.606;12.186;2022-10-16T19:59:14;18.00;71.00
4584;DHT22;2304;47.606;12.186;2022-10-16T20:04:19;18.00;70.40
4584;DHT22;2304;47.606;12.186;2022-10-16T20:09:21;17.90;70.40
4584;DHT22;2304;47.606;12.186;2022-10-16T20:14:23;17.90;70.80
4584;DHT22;2304;47.606;12.186;2022-10-16T20:19:26;17.80;71.00
4584;DHT22;2304;47.606;12.186;2022-10-16T20:24:28;17.70;71.30
4584;DHT22;2304;47.606;12.186;2022-10-16T20:29:30;17.80;72.70
4584;DHT22;2304;47.606;12.186;2022-10-16T20:34:33;17.80;71.90
4584;DHT22;2304;47.606;12.186;2022-10-16T20:39:35;17.60;71.40
4584;DHT22;2304;47.606;12.186;2022-10-16T20:44:37;17.60;71.90
4584;DHT22;2304;47.606;12.186;2022-10-16T20:49:40;17.60;72.80
4584;DHT22;2304;47.606;12.186;2022-10-16T20:54:43;17.40;72.00
4584;DHT22;2304;47.606;12.186;2022-10-16T20:59:47;17.40;71.30
4584;DHT22;2304;47.606;12.186;2022-10-16T21:04:55;17.40;71.10
4584;DHT22;2304;47.606;12.186;2022-10-16T21:09:57;17.40;71.10
4584;DHT22;2304;47.606;12.186;2022-10-16T21:14:59;17.20;72.10
4584;DHT22;2304;47.606;12.186;2022-10-16T21:20:03;17.20;71.70
4584;DHT22;2304;47.606;12.186;2022-10-16T21:25:05;17.10;72.30
4584;DHT22;2304;47.606;12.186;2022-10-16T21:30:08;17.00;73.20
4584;DHT22;2304;47.606;12.186;2022-10-16T21:35:12;16.90;73.80
4584;DHT22;2304;47.606;12.186;2022-10-16T21:40:13;16.80;74.50
4584;DHT22;2304;47.606;12.186;2022-10-16T21:45:15;16.70;74.80
4584;DHT22;2304;47.606;12.186;2022-10-16T21:50:18;16.70;74.90
4584;DHT22;2304;47.606;12.186;2022-10-16T21:55:20;16.80;75.50
4584;DHT22;2304;47.606;12.186;2022-10-16T22:00:22;16.50;75.70
4584;DHT22;2304;47.606;12.186;2022-10-16T22:05:25;16.30;76.20
4584;DHT22;2304;47.606;12.186;2022-10-16T22:10:27;16.30;76.40
4584;DHT22;2304;47.606;12.186;2022-10-16T22:15:29;16.30;76.50
4584;DHT22;2304;47.606;12.186;2022-10-16T22:20:32;16.30;76.30
4584;DHT22;2304;47.606;12.186;2022-10-16T22:25:33;16.50;76.40
4584;DHT22;2304;47.606;12.186;2022-10-16T22:30:36;16.30;76.40
4584;DHT22;2304;47.606;12.186;2022-10-16T22:35:39;16.30;76.20
4584;DHT22;2304;47.606;12.186;2022-10-16T22:40:41;16.30;75.80
4584;DHT22;2304;47.606;12.186;2022-10-16T22:45:43;16.30;75.80
4584;DHT22;2304;47.606;12.186;2022-10-16T22:50:47;16.20;75.80
4584;DHT22;2304;47.606;12.186;2022-10-16T22:55:49;16.10;76.40
4584;DHT22;2304;47.606;12.186;2022-10-16T23:00:51;15.90;77.00
4584;DHT22;2304;47.606;12.186;2022-10-16T23:05:54;15.80;77.80
4584;DHT22;2304;47.606;12.186;2022-10-16T23:10:55;15.70;77.70
4584;DHT22;2304;47.606;12.186;2022-10-16T23:16:02;15.60;78.50
4584;DHT22;2304;47.606;12.186;2022-10-16T23:21:06;15.40;79.00
4584;DHT22;2304;47.606;12.186;2022-10-16T23:26:09;15.40;79.50
4584;DHT22;2304;47.606;12.186;2022-10-16T23:31:12;15.50;79.40
4584;DHT22;2304;47.606;12.186;2022-10-16T23:36:18;15.60;79.60
4584;DHT22;2304;47.606;12.186;2022-10-16T23:41:20;15.30;80.30
4584;DHT22;2304;47.606;12.186;2022-10-16T23:46:22;15.30;80.10
4584;DHT22;2304;47.606;12.186;2022-10-16T23:51:25;15.20;80.00
4584;DHT22;2304;47.606;12.186;2022-10-16T23:56:27;15.10;80.40
